sensor_id;sensor_type;location;lat;lon;timestamp;pressure;altitude;pressure_sealevel;temperature
43292;BMP280;28754;47.700;7.924;2023-11-21T00:00:46;90876.06;;;8.06
43292;BMP280;28754;47.700;7.924;2023-11-21T00:03:32;90895.22;;;8.09
43292;BMP280;28754;47.700;7.924;2023-11-21T00:06:19;90880.88;;;8.08
43292;BMP280;28754;47.700;7.924;2023-11-21T00:09:06;90890.56;;;8.06
43292;BMP280;28754;47.700;7.924;2023-11-21T00:11:54;90882.41;;;8.04
43292;BMP280;28754;47.700;7.924;2023-11-21T00:14:41;90878.09;;;8.04
43292;BMP280;28754;47.700;7.924;2023-11-21T00:17:28;90868.38;;;8.01
43292;BMP280;28754;47.700;7.924;2023-11-21T00:20:15;90877.31;;;8.04
43292;BMP280;28754;47.700;7.924;2023-11-21T00:23:02;90869.66;;;7.99
43292;BMP280;28754;47.700;7.924;2023-11-21T00:25:48;90864.06;;;7.92
43292;BMP280;28754;47.700;7.924;2023-11-21T00:28:35;90871.69;;;7.87
43292;BMP280;28754;47.700;7.924;2023-11-21T00:31:22;90862.25;;;7.83
43292;BMP280;28754;47.700;7.924;2023-11-21T00:34:09;90868.63;;;7.85
43292;BMP280;28754;47.700;7.924;2023-11-21T00:36:56;90858.44;;;7.85
43292;BMP280;28754;47.700;7.924;2023-11-21T00:39:42;90859.44;;;7.89
43292;BMP280;28754;47.700;7.924;2023-11-21T00:42:29;90857.41;;;7.86
43292;BMP280;28754;47.700;7.924;2023-11-21T00:45:16;90852.56;;;7.85
43292;BMP280;28754;47.700;7.924;2023-11-21T00:48:03;90855.38;;;7.83
43292;BMP280;28754;47.700;7.924;2023-11-21T00:50:51;90841.38;;;7.81
43292;BMP280;28754;47.700;7.924;2023-11-21T00:53:38;90845.19;;;7.83
43292;BMP280;28754;47.700;7.924;2023-11-21T00:56:24;90853.31;;;7.80
43292;BMP280;28754;47.700;7.924;2023-11-21T00:59:11;90853.31;;;7.75
43292;BMP280;28754;47.700;7.924;2023-11-21T01:01:58;90857.16;;;7.78
43292;BMP280;28754;47.700;7.924;2023-11-21T01:04:46;90864.31;;;7.81
43292;BMP280;28754;47.700;7.924;2023-11-21T01:07:34;90856.63;;;7.76
43292;BMP280;28754;47.700;7.924;2023-11-21T01:10:21;90866.56;;;7.77
43292;BMP280;28754;47.700;7.924;2023-11-21T01:13:07;90851.53;;;7.76
43292;BMP280;28754;47.700;7.924;2023-11-21T01:15:54;90862.47;;;7.76
43292;BMP280;28754;47.700;7.924;2023-11-21T01:18:41;90856.88;;;7.69
43292;BMP280;28754;47.700;7.924;2023-11-21T01:21:28;90864.28;;;7.71
43292;BMP280;28754;47.700;7.924;2023-11-21T01:24:15;90860.44;;;7.68
43292;BMP280;28754;47.700;7.924;2023-11-21T01:27:03;90861.97;;;7.69
43292;BMP280;28754;47.700;7.924;2023-11-21T01:29:50;90875.22;;;7.66
43292;BMP280;28754;47.700;7.924;2023-11-21T01:32:39;90860.41;;;7.63
43292;BMP280;28754;47.700;7.924;2023-11-21T01:35:26;90859.41;;;7.64
43292;BMP280;28754;47.700;7.924;2023-11-21T01:38:13;90857.88;;;7.63
43292;BMP280;28754;47.700;7.924;2023-11-21T01:41:01;90853.28;;;7.65
43292;BMP280;28754;47.700;7.924;2023-11-21T01:43:48;90852.28;;;7.66
43292;BMP280;28754;47.700;7.924;2023-11-21T01:46:35;90849.22;;;7.64
43292;BMP280;28754;47.700;7.924;2023-11-21T01:49:24;90851.78;;;7.64
43292;BMP280;28754;47.700;7.924;2023-11-21T01:52:12;90856.34;;;7.67
43292;BMP280;28754;47.700;7.924;2023-11-21T01:55:00;90847.72;;;7.68
43292;BMP280;28754;47.700;7.924;2023-11-21T01:57:48;90841.34;;;7.66
43292;BMP280;28754;47.700;7.924;2023-11-21T02:00:35;90849.75;;;7.66
43292;BMP280;28754;47.700;7.924;2023-11-21T02:03:21;90843.09;;;7.65
43292;BMP280;28754;47.700;7.924;2023-11-21T02:06:09;90844.13;;;7.64
43292;BMP280;28754;47.700;7.924;2023-11-21T02:08:55;90839.56;;;7.66
43292;BMP280;28754;47.700;7.924;2023-11-21T02:11:42;90846.69;;;7.69
43292;BMP280;28754;47.700;7.924;2023-11-21T02:14:29;90842.09;;;7.71
43292;BMP280;28754;47.700;7.924;2023-11-21T02:17:15;90845.16;;;7.73
43292;BMP280;28754;47.700;7.924;2023-11-21T02:20:03;90841.63;;;7.74
43292;BMP280;28754;47.700;7.924;2023-11-21T02:22:54;90847.19;;;7.76
43292;BMP280;28754;47.700;7.924;2023-11-21T02:25:44;90840.34;;;7.77
43292;BMP280;28754;47.700;7.924;2023-11-21T02:28:31;90836.25;;;7.76
43292;BMP280;28754;47.700;7.924;2023-11-21T02:31:18;90841.09;;;7.77
43292;BMP280;28754;47.700;7.924;2023-11-21T02:34:05;90823.25;;;7.77
43292;BMP280;28754;47.700;7.924;2023-11-21T02:36:52;90825.56;;;7.79
43292;BMP280;28754;47.700;7.924;2023-11-21T02:39:39;90824.28;;;7.81
43292;BMP280;28754;47.700;7.924;2023-11-21T02:42:25;90821.47;;;7.83
43292;BMP280;28754;47.700;7.924;2023-11-21T02:45:14;90813.81;;;7.83
43292;BMP280;28754;47.700;7.924;2023-11-21T02:48:03;90824.81;;;7.83
43292;BMP280;28754;47.700;7.924;2023-11-21T02:50:51;90827.59;;;7.82
43292;BMP280;28754;47.700;7.924;2023-11-21T02:53:39;90822.50;;;7.82
43292;BMP280;28754;47.700;7.924;2023-11-21T02:56:26;90823.25;;;7.82
43292;BMP280;28754;47.700;7.924;2023-11-21T03:03:04;90810.78;;;7.81
43292;BMP280;28754;47.700;7.924;2023-11-21T03:05:51;90812.81;;;7.79
43292;BMP280;28754;47.700;7.924;2023-11-21T03:08:38;90816.13;;;7.79
43292;BMP280;28754;47.700;7.924;2023-11-21T03:11:24;90812.31;;;7.77
43292;BMP280;28754;47.700;7.924;2023-11-21T03:14:11;90817.63;;;7.80
43292;BMP280;28754;47.700;7.924;2023-11-21T03:16:58;90812.53;;;7.80
43292;BMP280;28754;47.700;7.924;2023-11-21T03:19:44;90808.97;;;7.76
43292;BMP280;28754;47.700;7.924;2023-11-21T03:22:31;90807.44;;;7.75
43292;BMP280;28754;47.700;7.924;2023-11-21T03:25:19;90806.69;;;7.75
43292;BMP280;28754;47.700;7.924;2023-11-21T03:28:05;90812.56;;;7.75
43292;BMP280;28754;47.700;7.924;2023-11-21T03:30:52;90808.47;;;7.79
43292;BMP280;28754;47.700;7.924;2023-11-21T03:33:39;90807.97;;;7.82
43292;BMP280;28754;47.700;7.924;2023-11-21T03:36:25;90800.31;;;7.82
43292;BMP280;28754;47.700;7.924;2023-11-21T03:39:13;90808.72;;;7.83
43292;BMP280;28754;47.700;7.924;2023-11-21T03:42:00;90804.91;;;7.80
43292;BMP280;28754;47.700;7.924;2023-11-21T03:44:46;90803.91;;;7.81
43292;BMP280;28754;47.700;7.924;2023-11-21T03:47:34;90810.50;;;7.82
43292;BMP280;28754;47.700;7.924;2023-11-21T03:50:21;90817.63;;;7.80
43292;BMP280;28754;47.700;7.924;2023-11-21T03:53:08;90813.06;;;7.77
43292;BMP280;28754;47.700;7.924;2023-11-21T03:55:54;90815.09;;;7.75
43292;BMP280;28754;47.700;7.924;2023-11-21T03:58:41;90820.72;;;7.72
43292;BMP280;28754;47.700;7.924;2023-11-21T04:01:28;90814.81;;;7.72
43292;BMP280;28754;47.700;7.924;2023-11-21T04:04:14;90821.47;;;7.73
43292;BMP280;28754;47.700;7.924;2023-11-21T04:07:01;90813.56;;;7.69
43292;BMP280;28754;47.700;7.924;2023-11-21T04:09:47;90811.53;;;7.66
43292;BMP280;28754;47.700;7.924;2023-11-21T04:12:36;90824.50;;;7.65
43292;BMP280;28754;47.700;7.924;2023-11-21T04:15:22;90826.81;;;7.61
43292;BMP280;28754;47.700;7.924;2023-11-21T04:18:09;90826.03;;;7.61
43292;BMP280;28754;47.700;7.924;2023-11-21T04:20:56;90832.66;;;7.57
43292;BMP280;28754;47.700;7.924;2023-11-21T04:23:43;90827.28;;;7.58
43292;BMP280;28754;47.700;7.924;2023-11-21T04:26:30;90819.94;;;7.57
43292;BMP280;28754;47.700;7.924;2023-11-21T04:29:16;90832.66;;;7.57
43292;BMP280;28754;47.700;7.924;2023-11-21T04:32:03;90833.44;;;7.57
43292;BMP280;28754;47.700;7.924;2023-11-21T04:34:50;90831.13;;;7.56
43292;BMP280;28754;47.700;7.924;2023-11-21T04:37:37;90830.34;;;7.55
43292;BMP280;28754;47.700;7.924;2023-11-21T04:40:23;90835.47;;;7.60
43292;BMP280;28754;47.700;7.924;2023-11-21T04:43:10;90836.50;;;7.59
43292;BMP280;28754;47.700;7.924;2023-11-21T04:45:57;90842.34;;;7.60
43292;BMP280;28754;47.700;7.924;2023-11-21T04:48:43;90845.66;;;7.60
43292;BMP280;28754;47.700;7.924;2023-11-21T04:51:30;90839.53;;;7.56
43292;BMP280;28754;47.700;7.924;2023-11-21T04:54:18;90848.19;;;7.60
43292;BMP280;28754;47.700;7.924;2023-11-21T04:57:05;90840.56;;;7.60
43292;BMP280;28754;47.700;7.924;2023-11-21T04:59:54;90836.72;;;7.58
43292;BMP280;28754;47.700;7.924;2023-11-21T05:02:41;90840.03;;;7.58
43292;BMP280;28754;47.700;7.924;2023-11-21T05:05:31;90843.09;;;7.60
43292;BMP280;28754;47.700;7.924;2023-11-21T05:08:17;90833.44;;;7.62
43292;BMP280;28754;47.700;7.924;2023-11-21T05:11:05;90841.34;;;7.66
43292;BMP280;28754;47.700;7.924;2023-11-21T05:13:53;90829.84;;;7.63
43292;BMP280;28754;47.700;7.924;2023-11-21T05:16:42;90842.59;;;7.63
43292;BMP280;28754;47.700;7.924;2023-11-21T05:19:28;90837.25;;;7.65
43292;BMP280;28754;47.700;7.924;2023-11-21T05:22:15;90840.56;;;7.65
43292;BMP280;28754;47.700;7.924;2023-11-21T05:25:03;90845.41;;;7.67
43292;BMP280;28754;47.700;7.924;2023-11-21T05:27:50;90845.66;;;7.65
43292;BMP280;28754;47.700;7.924;2023-11-21T05:30:36;90836.50;;;7.64
43292;BMP280;28754;47.700;7.924;2023-11-21T05:33:25;90835.72;;;7.69
43292;BMP280;28754;47.700;7.924;2023-11-21T05:36:11;90835.97;;;7.62
43292;BMP280;28754;47.700;7.924;2023-11-21T05:38:58;90846.69;;;7.59
43292;BMP280;28754;47.700;7.924;2023-11-21T05:41:45;90845.41;;;7.57
43292;BMP280;28754;47.700;7.924;2023-11-21T05:44:32;90844.63;;;7.56
43292;BMP280;28754;47.700;7.924;2023-11-21T05:47:18;90840.78;;;7.54
43292;BMP280;28754;47.700;7.924;2023-11-21T05:50:06;90844.09;;;7.54
43292;BMP280;28754;47.700;7.924;2023-11-21T05:52:56;90850.22;;;7.53
43292;BMP280;28754;47.700;7.924;2023-11-21T05:55:43;90860.41;;;7.53
43292;BMP280;28754;47.700;7.924;2023-11-21T05:58:30;90852.25;;;7.52
43292;BMP280;28754;47.700;7.924;2023-11-21T06:01:17;90854.03;;;7.51
43292;BMP280;28754;47.700;7.924;2023-11-21T06:04:04;90855.03;;;7.50
43292;BMP280;28754;47.700;7.924;2023-11-21T06:06:52;90851.97;;;7.48
43292;BMP280;28754;47.700;7.924;2023-11-21T06:09:39;90861.41;;;7.48
43292;BMP280;28754;47.700;7.924;2023-11-21T06:12:25;90859.38;;;7.50
43292;BMP280;28754;47.700;7.924;2023-11-21T06:15:12;90868.81;;;7.49
43292;BMP280;28754;47.700;7.924;2023-11-21T06:17:59;90864.47;;;7.45
43292;BMP280;28754;47.700;7.924;2023-11-21T06:20:46;90867.50;;;7.42
43292;BMP280;28754;47.700;7.924;2023-11-21T06:23:33;90871.59;;;7.43
43292;BMP280;28754;47.700;7.924;2023-11-21T06:26:20;90866.50;;;7.43
43292;BMP280;28754;47.700;7.924;2023-11-21T06:29:07;90877.19;;;7.45
43292;BMP280;28754;47.700;7.924;2023-11-21T06:31:53;90879.75;;;7.45
43292;BMP280;28754;47.700;7.924;2023-11-21T06:34:41;90879.25;;;7.48
43292;BMP280;28754;47.700;7.924;2023-11-21T06:37:29;90884.34;;;7.48
43292;BMP280;28754;47.700;7.924;2023-11-21T06:40:18;90892.50;;;7.50
43292;BMP280;28754;47.700;7.924;2023-11-21T06:43:05;90892.25;;;7.51
43292;BMP280;28754;47.700;7.924;2023-11-21T06:45:53;90891.50;;;7.51
43292;BMP280;28754;47.700;7.924;2023-11-21T06:48:43;90896.06;;;7.53
43292;BMP280;28754;47.700;7.924;2023-11-21T06:51:29;90908.31;;;7.56
43292;BMP280;28754;47.700;7.924;2023-11-21T06:54:16;90903.22;;;7.56
43292;BMP280;28754;47.700;7.924;2023-11-21T06:57:03;90897.09;;;7.57
43292;BMP280;28754;47.700;7.924;2023-11-21T06:59:50;90897.63;;;7.59
43292;BMP280;28754;47.700;7.924;2023-11-21T07:02:39;90901.19;;;7.63
43292;BMP280;28754;47.700;7.924;2023-11-21T07:05:26;90911.13;;;7.60
43292;BMP280;28754;47.700;7.924;2023-11-21T07:08:12;90907.31;;;7.57
43292;BMP280;28754;47.700;7.924;2023-11-21T07:10:59;90908.34;;;7.61
43292;BMP280;28754;47.700;7.924;2023-11-21T07:13:46;90911.38;;;7.63
43292;BMP280;28754;47.700;7.924;2023-11-21T07:16:35;90927.69;;;7.62
43292;BMP280;28754;47.700;7.924;2023-11-21T07:19:24;90914.94;;;7.62
43292;BMP280;28754;47.700;7.924;2023-11-21T07:22:11;90912.66;;;7.61
43292;BMP280;28754;47.700;7.924;2023-11-21T07:24:57;90915.97;;;7.61
43292;BMP280;28754;47.700;7.924;2023-11-21T07:27:44;90904.47;;;7.59
43292;BMP280;28754;47.700;7.924;2023-11-21T07:30:31;90902.44;;;7.61
43292;BMP280;28754;47.700;7.924;2023-11-21T07:33:18;90914.19;;;7.67
43292;BMP280;28754;47.700;7.924;2023-11-21T07:36:06;90918.28;;;7.68
43292;BMP280;28754;47.700;7.924;2023-11-21T07:38:53;90904.75;;;7.67
43292;BMP280;28754;47.700;7.924;2023-11-21T07:41:40;90908.34;;;7.66
43292;BMP280;28754;47.700;7.924;2023-11-21T07:44:31;90910.88;;;7.66
43292;BMP280;28754;47.700;7.924;2023-11-21T07:47:18;90911.94;;;7.70
43292;BMP280;28754;47.700;7.924;2023-11-21T07:50:05;90907.59;;;7.66
43292;BMP280;28754;47.700;7.924;2023-11-21T07:52:53;90923.63;;;7.66
43292;BMP280;28754;47.700;7.924;2023-11-21T07:55:40;90929.22;;;7.63
43292;BMP280;28754;47.700;7.924;2023-11-21T07:58:27;90923.13;;;7.64
43292;BMP280;28754;47.700;7.924;2023-11-21T08:01:14;90920.56;;;7.64
43292;BMP280;28754;47.700;7.924;2023-11-21T08:04:01;90916.75;;;7.62
43292;BMP280;28754;47.700;7.924;2023-11-21T08:06:49;90913.91;;;7.63
43292;BMP280;28754;47.700;7.924;2023-11-21T08:09:36;90916.22;;;7.65
43292;BMP280;28754;47.700;7.924;2023-11-21T08:12:23;90927.47;;;7.69
43292;BMP280;28754;47.700;7.924;2023-11-21T08:15:10;90935.38;;;7.77
43292;BMP280;28754;47.700;7.924;2023-11-21T08:17:57;90934.38;;;7.88
43292;BMP280;28754;47.700;7.924;2023-11-21T08:20:45;90933.41;;;8.04
43292;BMP280;28754;47.700;7.924;2023-11-21T08:23:34;90925.31;;;8.22
43292;BMP280;28754;47.700;7.924;2023-11-21T08:26:24;90933.97;;;8.40
43292;BMP280;28754;47.700;7.924;2023-11-21T08:29:11;90940.13;;;8.49
43292;BMP280;28754;47.700;7.924;2023-11-21T08:31:58;90930.69;;;8.55
43292;BMP280;28754;47.700;7.924;2023-11-21T08:34:46;90930.41;;;8.61
43292;BMP280;28754;47.700;7.924;2023-11-21T08:37:35;90940.13;;;8.64
43292;BMP280;28754;47.700;7.924;2023-11-21T08:40:25;90938.59;;;8.68
43292;BMP280;28754;47.700;7.924;2023-11-21T08:43:12;90951.09;;;8.64
43292;BMP280;28754;47.700;7.924;2023-11-21T08:46:00;90949.81;;;8.57
43292;BMP280;28754;47.700;7.924;2023-11-21T08:48:49;90946.75;;;8.55
43292;BMP280;28754;47.700;7.924;2023-11-21T08:51:39;90957.75;;;8.56
43292;BMP280;28754;47.700;7.924;2023-11-21T08:54:26;90962.56;;;8.57
43292;BMP280;28754;47.700;7.924;2023-11-21T08:57:12;90964.13;;;8.58
43292;BMP280;28754;47.700;7.924;2023-11-21T08:59:59;90960.78;;;8.53
43292;BMP280;28754;47.700;7.924;2023-11-21T09:02:46;90969.72;;;8.45
43292;BMP280;28754;47.700;7.924;2023-11-21T09:05:33;90972.28;;;8.45
43292;BMP280;28754;47.700;7.924;2023-11-21T09:08:19;90962.06;;;8.45
43292;BMP280;28754;47.700;7.924;2023-11-21T09:11:08;90957.72;;;8.46
43292;BMP280;28754;47.700;7.924;2023-11-21T09:13:55;90960.28;;;8.46
43292;BMP280;28754;47.700;7.924;2023-11-21T09:16:41;90968.44;;;8.48
43292;BMP280;28754;47.700;7.924;2023-11-21T09:19:29;90975.81;;;8.44
43292;BMP280;28754;47.700;7.924;2023-11-21T09:22:17;90975.59;;;8.41
43292;BMP280;28754;47.700;7.924;2023-11-21T09:25:04;90977.34;;;8.40
43292;BMP280;28754;47.700;7.924;2023-11-21T09:27:51;90980.41;;;8.37
43292;BMP280;28754;47.700;7.924;2023-11-21T09:30:38;90983.25;;;8.41
43292;BMP280;28754;47.700;7.924;2023-11-21T09:33:25;90988.59;;;8.39
43292;BMP280;28754;47.700;7.924;2023-11-21T09:36:12;90990.09;;;8.40
43292;BMP280;28754;47.700;7.924;2023-11-21T09:39:02;90990.91;;;8.41
43292;BMP280;28754;47.700;7.924;2023-11-21T09:41:59;90993.44;;;8.41
43292;BMP280;28754;47.700;7.924;2023-11-21T09:45:05;90984.00;;;8.46
43292;BMP280;28754;47.700;7.924;2023-11-21T09:47:57;90985.78;;;8.51
43292;BMP280;28754;47.700;7.924;2023-11-21T09:50:45;90990.66;;;8.52
43292;BMP280;28754;47.700;7.924;2023-11-21T09:53:35;90985.28;;;8.54
43292;BMP280;28754;47.700;7.924;2023-11-21T09:56:21;90984.53;;;8.58
43292;BMP280;28754;47.700;7.924;2023-11-21T09:59:14;90994.97;;;8.56
43292;BMP280;28754;47.700;7.924;2023-11-21T10:02:02;90987.84;;;8.58
43292;BMP280;28754;47.700;7.924;2023-11-21T10:04:52;90992.19;;;8.58
43292;BMP280;28754;47.700;7.924;2023-11-21T10:07:40;90990.63;;;8.57
43292;BMP280;28754;47.700;7.924;2023-11-21T10:10:32;90994.22;;;8.61
43292;BMP280;28754;47.700;7.924;2023-11-21T10:13:21;90981.47;;;8.61
43292;BMP280;28754;47.700;7.924;2023-11-21T10:16:11;90983.50;;;8.59
43292;BMP280;28754;47.700;7.924;2023-11-21T10:19:01;90986.31;;;8.57
43292;BMP280;28754;47.700;7.924;2023-11-21T10:21:47;90997.78;;;8.55
43292;BMP280;28754;47.700;7.924;2023-11-21T10:24:35;90992.94;;;8.54
43292;BMP280;28754;47.700;7.924;2023-11-21T10:27:26;91004.69;;;8.50
43292;BMP280;28754;47.700;7.924;2023-11-21T10:30:13;90999.81;;;8.43
43292;BMP280;28754;47.700;7.924;2023-11-21T10:33:07;91003.38;;;8.42
43292;BMP280;28754;47.700;7.924;2023-11-21T10:35:57;90997.50;;;8.42
43292;BMP280;28754;47.700;7.924;2023-11-21T10:38:44;91001.09;;;8.41
43292;BMP280;28754;47.700;7.924;2023-11-21T10:41:32;90999.31;;;8.41
43292;BMP280;28754;47.700;7.924;2023-11-21T10:44:19;90988.59;;;8.44
43292;BMP280;28754;47.700;7.924;2023-11-21T10:47:10;90991.69;;;8.51
43292;BMP280;28754;47.700;7.924;2023-11-21T10:50:00;90983.50;;;8.54
43292;BMP280;28754;47.700;7.924;2023-11-21T10:52:47;90988.38;;;8.56
43292;BMP280;28754;47.700;7.924;2023-11-21T10:55:34;90995.25;;;8.60
43292;BMP280;28754;47.700;7.924;2023-11-21T10:58:21;90998.81;;;8.59
43292;BMP280;28754;47.700;7.924;2023-11-21T11:01:09;90993.69;;;8.59
43292;BMP280;28754;47.700;7.924;2023-11-21T11:04:00;90998.31;;;8.62
43292;BMP280;28754;47.700;7.924;2023-11-21T11:07:03;90995.25;;;8.60
43292;BMP280;28754;47.700;7.924;2023-11-21T11:09:50;90992.94;;;8.58
43292;BMP280;28754;47.700;7.924;2023-11-21T11:12:37;90999.31;;;8.56
43292;BMP280;28754;47.700;7.924;2023-11-21T11:15:25;91000.34;;;8.55
43292;BMP280;28754;47.700;7.924;2023-11-21T11:18:13;91007.75;;;8.56
43292;BMP280;28754;47.700;7.924;2023-11-21T11:28:07;91000.09;;;8.66
43292;BMP280;28754;47.700;7.924;2023-11-21T11:33:59;90998.31;;;8.67
43292;BMP280;28754;47.700;7.924;2023-11-21T11:37:17;91003.19;;;8.68
43292;BMP280;28754;47.700;7.924;2023-11-21T11:40:06;90993.72;;;8.69
43292;BMP280;28754;47.700;7.924;2023-11-21T11:42:58;90999.34;;;8.71
43292;BMP280;28754;47.700;7.924;2023-11-21T11:45:51;90996.78;;;8.71
43292;BMP280;28754;47.700;7.924;2023-11-21T11:48:40;91005.72;;;8.73
43292;BMP280;28754;47.700;7.924;2023-11-21T11:51:26;90992.19;;;8.68
43292;BMP280;28754;47.700;7.924;2023-11-21T11:54:13;91000.88;;;8.67
43292;BMP280;28754;47.700;7.924;2023-11-21T11:57:00;91002.16;;;8.64
43292;BMP280;28754;47.700;7.924;2023-11-21T12:03:04;90997.28;;;8.58
43292;BMP280;28754;47.700;7.924;2023-11-21T12:05:51;91008.78;;;8.60
43292;BMP280;28754;47.700;7.924;2023-11-21T12:08:44;91003.16;;;8.58
43292;BMP280;28754;47.700;7.924;2023-11-21T12:11:32;90981.19;;;8.48
43292;BMP280;28754;47.700;7.924;2023-11-21T12:14:19;91006.47;;;8.49
43292;BMP280;28754;47.700;7.924;2023-11-21T12:17:05;91006.97;;;8.51
43292;BMP280;28754;47.700;7.924;2023-11-21T12:19:52;90999.06;;;8.53
43292;BMP280;28754;47.700;7.924;2023-11-21T12:22:58;90998.81;;;8.54
43292;BMP280;28754;47.700;7.924;2023-11-21T12:25:48;91001.88;;;8.56
43292;BMP280;28754;47.700;7.924;2023-11-21T12:28:35;91000.59;;;8.58
43292;BMP280;28754;47.700;7.924;2023-11-21T12:31:24;91003.66;;;8.65
43292;BMP280;28754;47.700;7.924;2023-11-21T12:34:11;91011.34;;;8.70
43292;BMP280;28754;47.700;7.924;2023-11-21T12:36:59;91022.56;;;8.74
43292;BMP280;28754;47.700;7.924;2023-11-21T12:39:46;91007.75;;;8.76
43292;BMP280;28754;47.700;7.924;2023-11-21T12:42:34;91007.78;;;8.81
43292;BMP280;28754;47.700;7.924;2023-11-21T12:45:27;91015.69;;;8.80
43292;BMP280;28754;47.700;7.924;2023-11-21T12:48:14;91005.97;;;8.82
43292;BMP280;28754;47.700;7.924;2023-11-21T12:51:02;91008.00;;;8.89
43292;BMP280;28754;47.700;7.924;2023-11-21T12:53:50;91008.50;;;8.91
43292;BMP280;28754;47.700;7.924;2023-11-21T12:56:40;91005.97;;;8.96
43292;BMP280;28754;47.700;7.924;2023-11-21T12:59:27;91000.09;;;9.01
43292;BMP280;28754;47.700;7.924;2023-11-21T13:02:13;91011.59;;;9.03
43292;BMP280;28754;47.700;7.924;2023-11-21T13:05:02;91008.78;;;9.05
43292;BMP280;28754;47.700;7.924;2023-11-21T13:07:57;91010.81;;;9.08
43292;BMP280;28754;47.700;7.924;2023-11-21T13:10:45;90995.75;;;9.16
43292;BMP280;28754;47.700;7.924;2023-11-21T13:13:33;90991.63;;;9.30
43292;BMP280;28754;47.700;7.924;2023-11-21T13:16:20;91007.47;;;9.42
43292;BMP280;28754;47.700;7.924;2023-11-21T13:19:07;91000.28;;;9.49
43292;BMP280;28754;47.700;7.924;2023-11-21T13:21:55;91002.59;;;9.50
43292;BMP280;28754;47.700;7.924;2023-11-21T13:24:41;91005.91;;;9.46
43292;BMP280;28754;47.700;7.924;2023-11-21T13:27:29;91011.53;;;9.43
43292;BMP280;28754;47.700;7.924;2023-11-21T13:30:17;91019.75;;;9.35
43292;BMP280;28754;47.700;7.924;2023-11-21T13:33:09;91023.84;;;9.26
43292;BMP280;28754;47.700;7.924;2023-11-21T13:35:58;91023.34;;;9.24
43292;BMP280;28754;47.700;7.924;2023-11-21T13:38:45;91018.22;;;9.19
43292;BMP280;28754;47.700;7.924;2023-11-21T13:41:32;91027.16;;;9.17
43292;BMP280;28754;47.700;7.924;2023-11-21T13:44:19;91031.00;;;9.09
43292;BMP280;28754;47.700;7.924;2023-11-21T13:47:21;91037.63;;;9.05
43292;BMP280;28754;47.700;7.924;2023-11-21T13:50:11;91037.41;;;9.07
43292;BMP280;28754;47.700;7.924;2023-11-21T13:53:11;91025.38;;;9.02
43292;BMP280;28754;47.700;7.924;2023-11-21T13:56:08;91030.97;;;9.04
43292;BMP280;28754;47.700;7.924;2023-11-21T13:58:55;91033.56;;;8.99
43292;BMP280;28754;47.700;7.924;2023-11-21T14:01:42;91044.25;;;8.91
43292;BMP280;28754;47.700;7.924;2023-11-21T14:04:41;91042.75;;;8.86
43292;BMP280;28754;47.700;7.924;2023-11-21T14:07:41;91056.28;;;8.81
43292;BMP280;28754;47.700;7.924;2023-11-21T14:10:34;91034.31;;;8.75
43292;BMP280;28754;47.700;7.924;2023-11-21T14:13:29;91046.03;;;8.76
43292;BMP280;28754;47.700;7.924;2023-11-21T14:16:16;91040.41;;;8.69
43292;BMP280;28754;47.700;7.924;2023-11-21T14:19:05;91051.91;;;8.62
43292;BMP280;28754;47.700;7.924;2023-11-21T14:22:04;91047.28;;;8.54
43292;BMP280;28754;47.700;7.924;2023-11-21T14:24:54;91055.19;;;8.53
43292;BMP280;28754;47.700;7.924;2023-11-21T14:27:43;91058.25;;;8.45
43292;BMP280;28754;47.700;7.924;2023-11-21T14:30:33;91055.94;;;8.48
43292;BMP280;28754;47.700;7.924;2023-11-21T14:33:21;91056.19;;;8.47
43292;BMP280;28754;47.700;7.924;2023-11-21T14:36:09;91064.88;;;8.46
43292;BMP280;28754;47.700;7.924;2023-11-21T14:38:56;91066.16;;;8.43
43292;BMP280;28754;47.700;7.924;2023-11-21T14:41:43;91067.16;;;8.42
43292;BMP280;28754;47.700;7.924;2023-11-21T14:44:31;91078.38;;;8.41
43292;BMP280;28754;47.700;7.924;2023-11-21T14:47:22;91074.81;;;8.42
43292;BMP280;28754;47.700;7.924;2023-11-21T14:50:13;91074.03;;;8.42
43292;BMP280;28754;47.700;7.924;2023-11-21T14:53:19;91083.50;;;8.41
43292;BMP280;28754;47.700;7.924;2023-11-21T14:56:27;91084.50;;;8.40
43292;BMP280;28754;47.700;7.924;2023-11-21T14:59:17;91091.16;;;8.41
43292;BMP280;28754;47.700;7.924;2023-11-21T15:02:03;91095.72;;;8.39
43292;BMP280;28754;47.700;7.924;2023-11-21T15:05:01;91085.00;;;8.37
43292;BMP280;28754;47.700;7.924;2023-11-21T15:07:48;91092.91;;;8.36
43292;BMP280;28754;47.700;7.924;2023-11-21T15:10:36;91091.38;;;8.40
43292;BMP280;28754;47.700;7.924;2023-11-21T15:13:32;91102.63;;;8.44
43292;BMP280;28754;47.700;7.924;2023-11-21T15:16:20;91104.19;;;8.45
43292;BMP280;28754;47.700;7.924;2023-11-21T15:19:07;91109.00;;;8.46
43292;BMP280;28754;47.700;7.924;2023-11-21T15:21:55;91104.94;;;8.45
43292;BMP280;28754;47.700;7.924;2023-11-21T15:24:43;91111.03;;;8.44
43292;BMP280;28754;47.700;7.924;2023-11-21T15:27:32;91106.16;;;8.38
43292;BMP280;28754;47.700;7.924;2023-11-21T15:30:19;91112.03;;;8.33
43292;BMP280;28754;47.700;7.924;2023-11-21T15:33:10;91119.19;;;8.36
43292;BMP280;28754;47.700;7.924;2023-11-21T15:35:58;91119.44;;;8.35
43292;BMP280;28754;47.700;7.924;2023-11-21T15:38:45;91119.16;;;8.31
43292;BMP280;28754;47.700;7.924;2023-11-21T15:41:32;91118.91;;;8.28
43292;BMP280;28754;47.700;7.924;2023-11-21T15:44:18;91122.22;;;8.28
43292;BMP280;28754;47.700;7.924;2023-11-21T15:47:05;91133.19;;;8.29
43292;BMP280;28754;47.700;7.924;2023-11-21T15:49:54;91127.84;;;8.30
43292;BMP280;28754;47.700;7.924;2023-11-21T15:52:41;91137.28;;;8.35
43292;BMP280;28754;47.700;7.924;2023-11-21T15:55:30;91134.75;;;8.35
43292;BMP280;28754;47.700;7.924;2023-11-21T15:58:17;91126.84;;;8.36
43292;BMP280;28754;47.700;7.924;2023-11-21T16:01:04;91137.06;;;8.36
43292;BMP280;28754;47.700;7.924;2023-11-21T16:03:50;91139.59;;;8.36
43292;BMP280;28754;47.700;7.924;2023-11-21T16:06:37;91139.09;;;8.34
43292;BMP280;28754;47.700;7.924;2023-11-21T16:09:27;91136.00;;;8.32
43292;BMP280;28754;47.700;7.924;2023-11-21T16:12:17;91141.59;;;8.29
43292;BMP280;28754;47.700;7.924;2023-11-21T16:15:06;91140.84;;;8.29
43292;BMP280;28754;47.700;7.924;2023-11-21T16:17:58;91147.22;;;8.31
43292;BMP280;28754;47.700;7.924;2023-11-21T16:20:44;91144.16;;;8.29
43292;BMP280;28754;47.700;7.924;2023-11-21T16:23:31;91152.31;;;8.26
43292;BMP280;28754;47.700;7.924;2023-11-21T16:26:17;91159.72;;;8.28
43292;BMP280;28754;47.700;7.924;2023-11-21T16:29:04;91149.47;;;8.23
43292;BMP280;28754;47.700;7.924;2023-11-21T16:31:51;91161.47;;;8.22
43292;BMP280;28754;47.700;7.924;2023-11-21T16:34:38;91161.44;;;8.18
43292;BMP280;28754;47.700;7.924;2023-11-21T16:37:26;91170.59;;;8.14
43292;BMP280;28754;47.700;7.924;2023-11-21T16:40:13;91167.53;;;8.12